Marquette, WI (53947)

12:50 AM CDT on October 24, 2017 (GMT -0500)
Grand Valley Campground | | Change Station
Active Advisory: Wind Advisory

Elev 781 ft 43.69 °N, 89.17 °W | Updated 24 seconds ago

Rain
Rain
48.0 °F
Feels Like 46 °F
N
5.0
Wind Variable Wind from NNW

Today
High -- | Low -- °F
--% Chance of Precip.
Yesterday
High -- | Low -- °F
Precip. -- in
Pressure 29.54 in
Visibility 10.0 miles
Clouds Overcast 1000 ft
Windchill 46 °F
Dew Point 46 °F
Humidity 93%
Rainfall 0.05 in
Snow Depth Not available.
7:22 AM 5:58 PM
Waxing Crescent, 18% visible
METAR KUNU 240535Z AUTO 28005KT 10SM -RA OVC010 09/08 A2954 RMK AO2 P0001 T00890080
Pressure 29.54 in
Visibility 10.0 miles
Clouds Overcast 1000 ft
Windchill 46 °F
Dew Point 46 °F
Humidity 93%
Rainfall 0.05 in
Snow Depth Not available.
7:22 AM 5:58 PM
Waxing Crescent, 18% visible
METAR KUNU 240535Z AUTO 28005KT 10SM -RA OVC010 09/08 A2954 RMK AO2 P0001 T00890080

Get Your Daily Forecast Email!

Thanks for signing up!

Be on the lookout for a verification email in your inbox.

You'll start receiving severe weather alerts in your inbox..

×

10-Day Weather Forecast

Almanac

Astronomy

Oct. 24, 2017 Rise Set
Actual Time
Civil Twilight
Nautical Twilight
Astronomical Twilight
Moon
Length of Visible Light
Length of Day
Tomorrow will be .
, % of the Moon is Illuminated

Today's Extremes

State Highs State Lows

Community

WunderPhotos

Category 6

Welcome to Category 6. This is the collective home for Weather Underground's featured writeups by Dr. Jeff Masters (right), Bob Henson (left), Chris Burt, and other regular contributors.

Nearby

Air Quality

  Air Quality AQ Index Pollutant
Not available.

Snow Depth

Station Depth Elevation

Earthquake Activity

City Distance Mag. Time & Date
Minimum magnitude displayed is 2.5.

Coastal Water Temperatures

Place Temperature

Stations

Nearby Weather Stations

Station Location Temp. Windchill Dew Point Humidity Wind Precip. Elev Updated Type
                   

Watches & Warnings

Wind Advisory
Issued: 9:03 PM CDT Oct. 23, 2017 – National Weather Service

... Wind Advisory remains in effect from 7 am to 7 PM CDT
Tuesday...

A Wind Advisory remains in effect from 7 am to 7 PM CDT Tuesday.

* Timing... northwest winds will begin to increase overnight into
early morning Tuesday, with the strongest winds from late
morning Tuesday through Tuesday afternoon.

* Winds... northwest winds 20 to 30 mph with occasional gusts of 40
to 45 mph. The strongest gusts will occur from late morning
Tuesday through Tuesday afternoon.

* Impacts... loose objects and small tree limbs could be blow
about. High profile vehicles will be buffeted by gusty winds.

Precautionary/preparedness actions...

A Wind Advisory means that wind gusts of 45 mph are expected.
Winds this strong can make driving difficult... especially for
high profile vehicles. Use extra caution.